Time;durP1;ratioP1;P1;durP2;ratioP2;P2;SDS_P1;SDS_P2;PMS_P1;PMS_P2;Temp;Humidity;BMP_temperature;BMP_pressure;BME280_temperature;BME280_humidity;BME280_pressure;Samples;Min_cycle;Max_cycle;Signal;HPM_P1;HPM_P2
2023/03/18 00:01:23;;;;;;;5.03;3.08;;;;;;;;;;5094833;28;20122;-82
2023/03/18 00:03:51;;;;;;;7.53;3.47;;;;;;;;;;5094530;28;20548;-83
2023/03/18 00:06:19;;;;;;;6.78;3.15;;;;;;;;;;5076499;28;20501;-83
2023/03/18 00:08:47;;;;;;;4.68;2.92;;;;;;;;;;5076585;28;20071;-81
2023/03/18 00:11:16;;;;;;;3.80;2.65;;;;;;;;;;5077262;28;20048;-83
2023/03/18 00:13:43;;;;;;;2.92;2.63;;;;;;;;;;5076357;28;20056;-82
2023/03/18 00:16:11;;;;;;;3.53;2.70;;;;;;;;;;5094647;28;20130;-82
2023/03/18 00:18:39;;;;;;;5.90;3.25;;;;;;;;;;5076335;28;20059;-82
2023/03/18 00:21:06;;;;;;;6.10;2.88;;;;;;;;;;5076421;28;20080;-82
2023/03/18 00:23:34;;;;;;;5.13;2.90;;;;;;;;;;5076426;28;20052;-83
2023/03/18 00:26:01;;;;;;;3.97;2.63;;;;;;;;;;5076641;28;20143;-83
2023/03/18 00:28:30;;;;;;;11.80;2.90;;;;;;;;;;5076710;28;20055;-82
2023/03/18 00:31:02;;;;;;;6.40;3.05;;;;;;;;;;5094049;28;20058;-82
2023/03/18 00:33:30;;;;;;;9.35;3.13;;;;;;;;;;5077205;28;20052;-83
2023/03/18 00:35:58;;;;;;;4.45;3.08;;;;;;;;;;5077347;28;20547;-83
2023/03/18 00:38:25;;;;;;;4.07;2.83;;;;;;;;;;5078221;28;20044;-83
2023/03/18 00:40:59;;;;;;;3.80;3.20;;;;;;;;;;5096592;28;20572;-83
2023/03/18 00:43:28;;;;;;;5.47;2.90;;;;;;;;;;5078419;28;20044;-83
2023/03/18 00:45:56;;;;;;;3.72;2.80;;;;;;;;;;5078460;28;20052;-82
2023/03/18 00:48:24;;;;;;;3.58;3.03;;;;;;;;;;5079307;28;20153;-83
2023/03/18 00:50:52;;;;;;;5.15;2.90;;;;;;;;;;5079315;28;20051;-83
2023/03/18 00:53:20;;;;;;;4.00;2.58;;;;;;;;;;5080143;28;20060;-83
2023/03/18 00:55:47;;;;;;;5.63;3.08;;;;;;;;;;5080377;28;20048;-83
2023/03/18 00:58:14;;;;;;;3.08;2.63;;;;;;;;;;5082408;28;20084;-83
2023/03/18 01:00:42;;;;;;;5.53;3.05;;;;;;;;;;5076863;28;20127;-82
2023/03/18 01:03:09;;;;;;;4.40;2.60;;;;;;;;;;5078185;28;20082;-83
2023/03/18 01:05:37;;;;;;;4.80;2.92;;;;;;;;;;5076826;28;20055;-83
2023/03/18 01:08:04;;;;;;;4.35;2.90;;;;;;;;;;5095948;28;20048;-83
2023/03/18 01:10:31;;;;;;;3.95;2.70;;;;;;;;;;5077590;28;20052;-83
2023/03/18 01:13:00;;;;;;;4.65;2.50;;;;;;;;;;5078193;28;20060;-83
2023/03/18 01:15:28;;;;;;;6.15;2.80;;;;;;;;;;5078046;28;20675;-83
2023/03/18 01:17:57;;;;;;;5.50;2.65;;;;;;;;;;5078495;28;20052;-83
2023/03/18 01:20:24;;;;;;;6.63;2.63;;;;;;;;;;5078398;28;20044;-83
2023/03/18 01:22:54;;;;;;;5.72;2.78;;;;;;;;;;5078231;28;20111;-83
2023/03/18 01:25:22;;;;;;;7.53;2.90;;;;;;;;;;5077555;28;20055;-83
2023/03/18 01:27:49;;;;;;;3.60;2.60;;;;;;;;;;5078071;28;20158;-83
2023/03/18 01:30:18;;;;;;;7.38;3.20;;;;;;;;;;5078472;28;20083;-83
2023/03/18 01:32:46;;;;;;;8.23;2.90;;;;;;;;;;5081443;28;20070;-83
2023/03/18 01:35:14;;;;;;;8.60;3.03;;;;;;;;;;5078492;28;20064;-83
2023/03/18 01:37:42;;;;;;;9.15;3.10;;;;;;;;;;5078677;28;20059;-83
2023/03/18 01:40:10;;;;;;;5.38;2.63;;;;;;;;;;5078753;28;20139;-83
2023/03/18 01:42:38;;;;;;;6.13;2.80;;;;;;;;;;5083717;28;20080;-83
2023/03/18 01:45:15;;;;;;;7.00;3.50;;;;;;;;;;5083092;28;20048;-83
2023/03/18 01:47:43;;;;;;;9.18;3.63;;;;;;;;;;5078241;28;20068;-83
2023/03/18 01:50:12;;;;;;;9.20;3.30;;;;;;;;;;5078147;28;20048;-79
2023/03/18 01:52:39;;;;;;;9.27;3.05;;;;;;;;;;5077688;28;20078;-79
2023/03/18 01:55:09;;;;;;;8.45;3.15;;;;;;;;;;5078025;28;20072;-79
2023/03/18 01:57:37;;;;;;;8.05;2.78;;;;;;;;;;5078279;28;20044;-79
2023/03/18 02:00:05;;;;;;;3.42;2.65;;;;;;;;;;5078219;28;20483;-79
2023/03/18 02:02:32;;;;;;;4.18;2.40;;;;;;;;;;5078521;28;20044;-79
2023/03/18 02:05:01;;;;;;;4.68;2.72;;;;;;;;;;5078614;28;20509;-80
2023/03/18 02:07:31;;;;;;;6.10;2.65;;;;;;;;;;5078532;28;20114;-81
2023/03/18 02:10:01;;;;;;;3.08;2.75;;;;;;;;;;5079134;28;20080;-80
2023/03/18 02:12:30;;;;;;;3.28;2.67;;;;;;;;;;5080484;28;20084;-79
2023/03/18 02:15:04;;;;;;;5.72;2.85;;;;;;;;;;5079498;28;20176;-78
2023/03/18 02:17:34;;;;;;;8.48;3.22;;;;;;;;;;5078169;28;20118;-79
2023/03/18 02:20:25;;;;;;;4.75;2.97;;;;;;;;;;5078862;28;20049;-79
2023/03/18 02:22:55;;;;;;;5.00;2.97;;;;;;;;;;5078762;28;20048;-79
2023/03/18 02:25:42;;;;;;;10.88;2.80;;;;;;;;;;5078859;28;20483;-80
2023/03/18 02:28:12;;;;;;;8.82;3.13;;;;;;;;;;5079107;28;20052;-79
2023/03/18 02:30:46;;;;;;;5.32;3.28;;;;;;;;;;5078426;28;20048;-80
2023/03/18 02:33:14;;;;;;;10.60;2.90;;;;;;;;;;5080819;28;20048;-79
2023/03/18 02:35:44;;;;;;;2.80;2.58;;;;;;;;;;5093384;28;20063;-79
2023/03/18 02:38:12;;;;;;;2.80;2.47;;;;;;;;;;5097861;28;20028;-80
2023/03/18 02:40:40;;;;;;;4.25;3.08;;;;;;;;;;5093931;28;20048;-80
2023/03/18 02:43:16;;;;;;;3.80;2.70;;;;;;;;;;5093272;28;20076;-81
2023/03/18 02:46:03;;;;;;;4.32;2.78;;;;;;;;;;5094212;28;20044;-81
2023/03/18 02:48:34;;;;;;;7.75;3.00;;;;;;;;;;5094833;28;20070;-81
2023/03/18 02:51:02;;;;;;;4.75;2.80;;;;;;;;;;5095129;28;20047;-81
2023/03/18 02:53:29;;;;;;;7.55;3.33;;;;;;;;;;5095592;28;20059;-81
2023/03/18 02:55:57;;;;;;;6.22;3.20;;;;;;;;;;5095727;28;20058;-81
2023/03/18 02:58:24;;;;;;;4.72;2.88;;;;;;;;;;5096101;28;20070;-81
2023/03/18 03:00:51;;;;;;;6.78;3.17;;;;;;;;;;5094907;28;20043;-81
2023/03/18 03:03:18;;;;;;;3.83;2.70;;;;;;;;;;5087918;28;20209;-80
2023/03/18 03:05:46;;;;;;;4.65;3.00;;;;;;;;;;5088993;28;20055;-79
2023/03/18 03:08:14;;;;;;;5.72;3.22;;;;;;;;;;5089620;28;20075;-80
2023/03/18 03:10:41;;;;;;;6.28;3.05;;;;;;;;;;5109080;28;20401;-80
2023/03/18 03:13:08;;;;;;;4.68;2.88;;;;;;;;;;5090960;28;20044;-80
2023/03/18 03:15:37;;;;;;;8.40;3.17;;;;;;;;;;5109684;28;20044;-81
2023/03/18 03:18:05;;;;;;;4.90;3.05;;;;;;;;;;5091730;28;20071;-80
2023/03/18 03:20:34;;;;;;;5.95;2.63;;;;;;;;;;5111136;28;20044;-81
2023/03/18 03:23:02;;;;;;;10.77;3.25;;;;;;;;;;5094259;28;20048;-81
2023/03/18 03:25:31;;;;;;;5.38;3.30;;;;;;;;;;5094911;28;20048;-82
2023/03/18 03:27:58;;;;;;;5.57;3.22;;;;;;;;;;5094435;28;20059;-80
2023/03/18 03:30:26;;;;;;;6.25;3.22;;;;;;;;;;5090471;28;20106;-80
2023/03/18 03:32:54;;;;;;;6.85;3.40;;;;;;;;;;5090825;28;20048;-80
2023/03/18 03:35:22;;;;;;;4.85;3.40;;;;;;;;;;5086923;28;20045;-80
2023/03/18 03:37:49;;;;;;;4.95;3.33;;;;;;;;;;5089034;28;20079;-81
2023/03/18 03:40:17;;;;;;;4.28;3.38;;;;;;;;;;5083491;28;20044;-80
2023/03/18 03:42:45;;;;;;;5.22;3.10;;;;;;;;;;5077665;28;20050;-81
2023/03/18 03:45:13;;;;;;;5.05;3.20;;;;;;;;;;5075633;28;20087;-83
2023/03/18 03:47:41;;;;;;;3.72;3.05;;;;;;;;;;5075735;28;20052;-83
2023/03/18 03:50:10;;;;;;;4.35;3.17;;;;;;;;;;5075596;28;20048;-83
2023/03/18 03:52:37;;;;;;;6.65;2.47;;;;;;;;;;5075797;28;20048;-82
2023/03/18 03:55:09;;;;;;;3.53;3.22;;;;;;;;;;5075201;28;20135;-83
2023/03/18 03:57:38;;;;;;;4.57;2.60;;;;;;;;;;5075958;28;20045;-83
2023/03/18 04:00:09;;;;;;;4.25;3.08;;;;;;;;;;5076501;28;20544;-83
2023/03/18 04:02:36;;;;;;;3.20;2.90;;;;;;;;;;5076904;28;20044;-83
2023/03/18 04:05:03;;;;;;;4.78;2.53;;;;;;;;;;5083837;28;20104;-82
2023/03/18 04:07:31;;;;;;;8.23;2.72;;;;;;;;;;5085226;28;20148;-83
2023/03/18 04:09:58;;;;;;;5.00;2.95;;;;;;;;;;5076166;28;20044;-82
2023/03/18 04:12:25;;;;;;;6.47;2.78;;;;;;;;;;5074883;28;20214;-82
2023/03/18 04:14:54;;;;;;;4.20;2.72;;;;;;;;;;5074810;28;20044;-78
2023/03/18 04:17:21;;;;;;;6.28;2.78;;;;;;;;;;5076409;28;20123;-78
2023/03/18 04:19:48;;;;;;;5.85;3.17;;;;;;;;;;5075476;28;20080;-79
2023/03/18 04:22:17;;;;;;;6.07;2.75;;;;;;;;;;5075896;28;20463;-78
2023/03/18 04:24:44;;;;;;;9.38;2.75;;;;;;;;;;5076761;28;20147;-78
2023/03/18 04:27:11;;;;;;;5.22;2.92;;;;;;;;;;5075421;28;20521;-78
2023/03/18 04:29:39;;;;;;;3.53;2.65;;;;;;;;;;5075342;28;20127;-83
2023/03/18 04:32:07;;;;;;;4.28;3.58;;;;;;;;;;5076584;28;20118;-82
2023/03/18 04:34:34;;;;;;;3.47;3.08;;;;;;;;;;5078195;28;20544;-83
2023/03/18 04:37:02;;;;;;;5.38;3.45;;;;;;;;;;5099828;22;20147;-86
2023/03/18 04:39:29;;;;;;;4.38;2.70;;;;;;;;;;5091973;28;20044;-86
2023/03/18 04:41:57;;;;;;;5.05;3.10;;;;;;;;;;5092039;28;20055;-86
2023/03/18 04:44:25;;;;;;;7.88;2.85;;;;;;;;;;5092217;28;20044;-86
2023/03/18 04:46:52;;;;;;;4.38;2.88;;;;;;;;;;5093166;28;20098;-86
2023/03/18 04:49:20;;;;;;;3.25;2.92;;;;;;;;;;5092031;28;20059;-86
2023/03/18 04:51:47;;;;;;;4.65;2.75;;;;;;;;;;5091882;28;20126;-86
2023/03/18 04:54:15;;;;;;;4.75;3.10;;;;;;;;;;5091915;28;20091;-86
2023/03/18 04:56:42;;;;;;;6.72;2.88;;;;;;;;;;5091872;28;20101;-86
2023/03/18 04:59:09;;;;;;;4.57;2.65;;;;;;;;;;5091962;28;20056;-86
2023/03/18 05:01:37;;;;;;;3.10;2.80;;;;;;;;;;5091817;28;20050;-86
2023/03/18 05:04:04;;;;;;;7.97;3.08;;;;;;;;;;5093554;28;20054;-85
2023/03/18 05:06:32;;;;;;;4.40;2.53;;;;;;;;;;5094246;28;20123;-85
2023/03/18 05:09:00;;;;;;;6.53;2.92;;;;;;;;;;5096324;28;20081;-86
2023/03/18 05:11:27;;;;;;;6.35;2.90;;;;;;;;;;5095960;28;20055;-86
2023/03/18 05:13:54;;;;;;;6.32;3.00;;;;;;;;;;5095421;28;20074;-86
2023/03/18 05:16:22;;;;;;;5.25;2.58;;;;;;;;;;5095811;28;20044;-86
2023/03/18 05:18:51;;;;;;;5.90;2.58;;;;;;;;;;5095730;28;20441;-86
2023/03/18 05:21:18;;;;;;;9.60;3.08;;;;;;;;;;5095948;28;20411;-86
2023/03/18 05:23:46;;;;;;;9.85;3.20;;;;;;;;;;5095637;28;20504;-86
2023/03/18 05:26:13;;;;;;;3.90;2.97;;;;;;;;;;5096708;28;20052;-86
2023/03/18 05:28:40;;;;;;;5.05;3.15;;;;;;;;;;5096655;28;20044;-86
2023/03/18 05:31:07;;;;;;;3.78;2.83;;;;;;;;;;5096711;28;20043;-86
2023/03/18 05:33:35;;;;;;;7.35;2.90;;;;;;;;;;5095597;28;20046;-86
2023/03/18 05:36:03;;;;;;;4.05;2.97;;;;;;;;;;5096426;28;20413;-87
2023/03/18 05:38:30;;;;;;;6.80;3.40;;;;;;;;;;5096386;28;20052;-86
2023/03/18 05:40:57;;;;;;;5.28;3.03;;;;;;;;;;5095207;28;20040;-86
2023/03/18 05:43:27;;;;;;;4.20;3.30;;;;;;;;;;5096544;28;20059;-85
2023/03/18 05:45:54;;;;;;;6.40;3.20;;;;;;;;;;5094828;28;20044;-86
2023/03/18 05:48:21;;;;;;;11.82;4.18;;;;;;;;;;5096199;28;20127;-85
2023/03/18 05:50:49;;;;;;;24.10;3.75;;;;;;;;;;5095067;28;20059;-86
2023/03/18 05:53:16;;;;;;;24.52;4.18;;;;;;;;;;5096282;28;20075;-86
2023/03/18 05:55:43;;;;;;;9.80;3.35;;;;;;;;;;5095067;28;20492;-86
2023/03/18 05:58:11;;;;;;;4.57;3.53;;;;;;;;;;5094767;28;20466;-86
2023/03/18 06:00:39;;;;;;;9.40;3.42;;;;;;;;;;5095844;28;20129;-86
2023/03/18 06:03:06;;;;;;;9.02;3.22;;;;;;;;;;5096139;28;20048;-86
2023/03/18 06:05:33;;;;;;;7.28;3.65;;;;;;;;;;5094758;28;20056;-86
2023/03/18 06:08:01;;;;;;;6.95;3.30;;;;;;;;;;5094830;28;20083;-86
2023/03/18 06:10:29;;;;;;;31.00;4.20;;;;;;;;;;5094763;28;20041;-86
2023/03/18 06:12:56;;;;;;;27.92;4.63;;;;;;;;;;5094808;28;20070;-86
2023/03/18 06:15:24;;;;;;;23.55;4.50;;;;;;;;;;5094813;28;20059;-86
2023/03/18 06:17:51;;;;;;;13.52;3.72;;;;;;;;;;5095098;28;20055;-86
2023/03/18 06:20:19;;;;;;;15.70;4.13;;;;;;;;;;5094827;28;20059;-86
2023/03/18 06:22:48;;;;;;;10.02;3.30;;;;;;;;;;5094319;28;20058;-86
2023/03/18 06:25:17;;;;;;;6.68;3.20;;;;;;;;;;5094603;28;20075;-86
2023/03/18 06:27:45;;;;;;;8.30;3.38;;;;;;;;;;5094387;28;20052;-86
2023/03/18 06:30:12;;;;;;;9.60;3.50;;;;;;;;;;5094271;28;20044;-86
2023/03/18 06:32:40;;;;;;;6.40;2.88;;;;;;;;;;5095468;28;20048;-86
2023/03/18 06:35:09;;;;;;;9.20;3.10;;;;;;;;;;5094141;28;20055;-86
2023/03/18 06:37:37;;;;;;;18.17;3.47;;;;;;;;;;5093963;28;20056;-86
2023/03/18 06:40:05;;;;;;;10.02;3.40;;;;;;;;;;5094331;28;20048;-85
2023/03/18 06:42:32;;;;;;;16.40;3.78;;;;;;;;;;5094193;28;20106;-86
2023/03/18 06:45:00;;;;;;;16.33;4.13;;;;;;;;;;5095289;28;20445;-86
2023/03/18 06:47:27;;;;;;;7.13;3.42;;;;;;;;;;5094313;28;20048;-86
2023/03/18 06:49:55;;;;;;;51.97;6.45;;;;;;;;;;5095071;28;20052;-86
2023/03/18 06:52:22;;;;;;;47.60;5.93;;;;;;;;;;5094025;28;20476;-86
2023/03/18 06:54:50;;;;;;;25.10;4.47;;;;;;;;;;5097576;28;20140;-86
2023/03/18 06:57:19;;;;;;;35.58;5.25;;;;;;;;;;5079591;28;20049;-86
2023/03/18 06:59:46;;;;;;;13.82;4.40;;;;;;;;;;5073653;28;20462;-86
2023/03/18 07:02:14;;;;;;;17.15;3.97;;;;;;;;;;5074718;28;20057;-86
2023/03/18 07:04:41;;;;;;;21.70;4.40;;;;;;;;;;5056537;28;20164;-86
2023/03/18 07:07:09;;;;;;;10.05;3.13;;;;;;;;;;5073504;28;20049;-86
2023/03/18 07:09:36;;;;;;;11.07;2.85;;;;;;;;;;5074147;28;20056;-86
2023/03/18 07:12:05;;;;;;;7.55;3.40;;;;;;;;;;5074635;28;20083;-86
2023/03/18 07:14:32;;;;;;;5.00;3.97;;;;;;;;;;5073195;28;20123;-86
2023/03/18 07:17:01;;;;;;;7.60;3.10;;;;;;;;;;5073256;28;20404;-86
2023/03/18 07:19:28;;;;;;;5.68;3.30;;;;;;;;;;5072994;28;20058;-86
2023/03/18 07:21:55;;;;;;;3.72;2.78;;;;;;;;;;5072912;28;20408;-86
2023/03/18 07:24:23;;;;;;;16.63;3.67;;;;;;;;;;5074190;28;20475;-86
2023/03/18 07:26:51;;;;;;;25.40;4.05;;;;;;;;;;5073930;28;20055;-85
2023/03/18 07:29:18;;;;;;;21.70;3.92;;;;;;;;;;5076066;28;20480;-85
2023/03/18 07:31:46;;;;;;;22.27;4.63;;;;;;;;;;5083548;28;20040;-86
2023/03/18 07:34:14;;;;;;;7.20;3.22;;;;;;;;;;5081820;28;20133;-85
2023/03/18 07:36:41;;;;;;;6.70;3.20;;;;;;;;;;5074010;28;20066;-86
2023/03/18 07:39:11;;;;;;;10.90;3.25;;;;;;;;;;5073770;28;20140;-86
2023/03/18 07:41:38;;;;;;;7.00;2.63;;;;;;;;;;5073695;28;20048;-86
2023/03/18 07:44:06;;;;;;;4.38;3.38;;;;;;;;;;5073615;28;20049;-86
2023/03/18 07:46:33;;;;;;;7.55;3.97;;;;;;;;;;5055824;28;20055;-86
2023/03/18 07:49:01;;;;;;;7.28;4.57;;;;;;;;;;5073718;28;20094;-85
2023/03/18 07:51:28;;;;;;;5.45;4.13;;;;;;;;;;5073664;28;20062;-86
2023/03/18 07:53:56;;;;;;;4.20;3.38;;;;;;;;;;5073544;28;20419;-85
2023/03/18 07:56:23;;;;;;;6.25;4.03;;;;;;;;;;5072270;28;20143;-86
2023/03/18 07:58:51;;;;;;;5.10;3.47;;;;;;;;;;5073479;28;20045;-86
2023/03/18 08:01:19;;;;;;;6.03;3.47;;;;;;;;;;5072219;28;20055;-86
2023/03/18 08:03:46;;;;;;;6.22;3.55;;;;;;;;;;5071136;28;20075;-86
2023/03/18 08:06:14;;;;;;;4.63;3.35;;;;;;;;;;5073276;28;20105;-86
2023/03/18 08:08:43;;;;;;;4.18;3.35;;;;;;;;;;5055477;28;20415;-86
2023/03/18 08:11:10;;;;;;;8.70;5.22;;;;;;;;;;5071954;28;20055;-86
2023/03/18 08:13:38;;;;;;;8.95;4.68;;;;;;;;;;5073362;28;20139;-86
2023/03/18 08:16:06;;;;;;;6.13;3.38;;;;;;;;;;5071891;28;20048;-86
2023/03/18 08:18:33;;;;;;;3.58;3.22;;;;;;;;;;5071386;28;20052;-86
2023/03/18 08:21:00;;;;;;;9.65;2.92;;;;;;;;;;5071956;28;20047;-86
2023/03/18 08:23:28;;;;;;;8.40;3.58;;;;;;;;;;5071512;28;20048;-86
2023/03/18 08:25:55;;;;;;;3.63;2.80;;;;;;;;;;5072032;28;20439;-86
2023/03/18 08:28:22;;;;;;;4.85;3.17;;;;;;;;;;5071961;28;20044;-86
2023/03/18 08:30:53;;;;;;;4.25;3.20;;;;;;;;;;5071571;28;20044;-86
2023/03/18 08:33:20;;;;;;;7.38;3.65;;;;;;;;;;5071940;28;20053;-84
2023/03/18 08:35:48;;;;;;;4.07;2.60;;;;;;;;;;5071329;28;20086;-83
2023/03/18 08:38:15;;;;;;;5.75;3.17;;;;;;;;;;5080772;28;20075;-85
2023/03/18 08:40:43;;;;;;;5.97;4.22;;;;;;;;;;5094575;28;20491;-84
2023/03/18 08:43:10;;;;;;;5.45;3.10;;;;;;;;;;5098393;28;20062;-83
2023/03/18 08:45:38;;;;;;;7.68;3.20;;;;;;;;;;5099623;28;20151;-84
2023/03/18 08:48:06;;;;;;;4.30;2.60;;;;;;;;;;5100011;28;20048;-84
2023/03/18 08:50:34;;;;;;;5.03;2.47;;;;;;;;;;5099725;28;20170;-84
2023/03/18 08:53:02;;;;;;;4.65;2.58;;;;;;;;;;5098330;28;20059;-83
2023/03/18 08:55:30;;;;;;;3.83;2.47;;;;;;;;;;5098987;28;20442;-83
2023/03/18 08:57:58;;;;;;;4.55;2.42;;;;;;;;;;5098190;28;20105;-84
2023/03/18 09:00:26;;;;;;;5.45;2.90;;;;;;;;;;5099493;28;20052;-83
2023/03/18 09:02:53;;;;;;;3.40;2.63;;;;;;;;;;5098372;28;20134;-83
2023/03/18 09:05:20;;;;;;;4.00;2.20;;;;;;;;;;5098249;28;20048;-83
2023/03/18 09:07:47;;;;;;;4.18;2.58;;;;;;;;;;5097932;28;20040;-83
2023/03/18 09:10:16;;;;;;;3.75;2.50;;;;;;;;;;5097955;28;20062;-83
2023/03/18 09:12:44;;;;;;;5.05;2.60;;;;;;;;;;5098050;28;20566;-83
2023/03/18 09:15:13;;;;;;;7.65;2.92;;;;;;;;;;5097272;28;20056;-83
2023/03/18 09:17:41;;;;;;;5.60;2.40;;;;;;;;;;5099077;28;20055;-83
2023/03/18 09:20:27;;;;;;;4.03;2.28;;;;;;;;;;5098291;28;20048;-83
2023/03/18 09:22:54;;;;;;;13.15;4.38;;;;;;;;;;5097806;28;20471;-83
2023/03/18 09:25:23;;;;;;;49.47;6.60;;;;;;;;;;5097752;28;20567;-84
2023/03/18 09:27:51;;;;;;;29.38;4.53;;;;;;;;;;5099224;28;20515;-83
2023/03/18 09:30:18;;;;;;;31.55;4.18;;;;;;;;;;5098116;28;20056;-84
2023/03/18 09:32:46;;;;;;;9.88;2.35;;;;;;;;;;5097820;28;20101;-83
2023/03/18 09:35:13;;;;;;;13.52;3.15;;;;;;;;;;5097282;28;20127;-83
2023/03/18 09:37:40;;;;;;;8.55;2.60;;;;;;;;;;5089120;28;20507;-83
2023/03/18 09:40:09;;;;;;;2.25;2.00;;;;;;;;;;5078557;28;20058;-83
2023/03/18 09:42:51;;;;;;;4.05;2.28;;;;;;;;;;5077290;28;20135;-83
2023/03/18 09:45:26;;;;;;;3.95;2.78;;;;;;;;;;5077807;28;20048;-83
2023/03/18 09:48:03;;;;;;;3.88;2.10;;;;;;;;;;5077448;28;20102;-83
2023/03/18 09:50:49;;;;;;;9.63;2.10;;;;;;;;;;5078712;28;20044;-83
2023/03/18 09:53:19;;;;;;;20.50;2.95;;;;;;;;;;5057233;28;20051;-83
2023/03/18 09:55:55;;;;;;;3.08;1.88;;;;;;;;;;5073514;28;20323;-83
2023/03/18 09:58:32;;;;;;;3.90;1.98;;;;;;;;;;5073954;28;20105;-83
2023/03/18 10:01:05;;;;;;;9.98;3.50;;;;;;;;;;5080805;28;20131;-86
2023/03/18 10:03:38;;;;;;;10.70;2.70;;;;;;;;;;5071338;28;20102;-83
2023/03/18 10:06:15;;;;;;;15.88;3.47;;;;;;;;;;5071105;28;20067;-83
2023/03/18 10:08:49;;;;;;;10.70;2.33;;;;;;;;;;5071235;28;20044;-83
2023/03/18 10:11:22;;;;;;;2.33;1.60;;;;;;;;;;5072642;28;20136;-83
2023/03/18 10:14:08;;;;;;;12.68;1.75;;;;;;;;;;5071419;28;20040;-82
2023/03/18 10:16:44;;;;;;;3.00;1.85;;;;;;;;;;5071884;28;20048;-83
2023/03/18 10:19:11;;;;;;;6.97;6.28;;;;;;;;;;5073845;28;20048;-84
2023/03/18 10:21:44;;;;;;;3.25;2.40;;;;;;;;;;5074978;28;20112;-83
2023/03/18 10:24:11;;;;;;;2.05;1.30;;;;;;;;;;5073915;28;20057;-83
2023/03/18 10:26:41;;;;;;;2.47;1.52;;;;;;;;;;5073357;28;20056;-83
2023/03/18 10:29:12;;;;;;;2.05;1.38;;;;;;;;;;5074848;28;20488;-83
2023/03/18 10:31:51;;;;;;;1.55;1.08;;;;;;;;;;5057171;28;20058;-83
2023/03/18 10:34:21;;;;;;;3.30;1.20;;;;;;;;;;5057253;28;20094;-83
2023/03/18 10:36:58;;;;;;;2.10;1.25;;;;;;;;;;5071904;28;20063;-83
2023/03/18 10:39:26;;;;;;;1.85;1.38;;;;;;;;;;5073462;28;20488;-83
2023/03/18 10:41:54;;;;;;;1.50;1.33;;;;;;;;;;5074361;28;20052;-83
2023/03/18 10:44:29;;;;;;;25.27;3.15;;;;;;;;;;5073410;28;20055;-85
2023/03/18 10:46:59;;;;;;;66.20;5.32;;;;;;;;;;5073644;28;20053;-83
2023/03/18 10:49:32;;;;;;;36.80;4.00;;;;;;;;;;5073463;28;20048;-83
2023/03/18 10:52:05;;;;;;;5.47;1.38;;;;;;;;;;5075159;28;20049;-84
2023/03/18 10:54:39;;;;;;;13.40;1.95;;;;;;;;;;5074320;28;20052;-83
2023/03/18 10:57:08;;;;;;;12.77;2.60;;;;;;;;;;5073406;28;20067;-84
2023/03/18 10:59:35;;;;;;;11.30;1.77;;;;;;;;;;5074100;28;20414;-83
2023/03/18 11:02:05;;;;;;;12.98;2.30;;;;;;;;;;5073120;28;20052;-83
2023/03/18 11:04:36;;;;;;;4.65;1.63;;;;;;;;;;5072706;28;20045;-83
2023/03/18 11:07:05;;;;;;;5.18;2.15;;;;;;;;;;5073990;28;20055;-83
2023/03/18 11:09:35;;;;;;;4.22;2.15;;;;;;;;;;5056533;28;20076;-83
2023/03/18 11:12:06;;;;;;;7.93;2.03;;;;;;;;;;5056698;28;20470;-84
2023/03/18 11:14:36;;;;;;;5.32;1.50;;;;;;;;;;5076126;28;20051;-82
2023/03/18 11:17:05;;;;;;;22.58;2.90;;;;;;;;;;5074015;28;20052;-83
2023/03/18 11:19:32;;;;;;;1.70;1.00;;;;;;;;;;5073735;28;20053;-83
2023/03/18 11:22:01;;;;;;;2.20;1.05;;;;;;;;;;5072659;28;20416;-83
2023/03/18 11:24:35;;;;;;;3.88;1.10;;;;;;;;;;5073931;28;20055;-83
2023/03/18 11:27:03;;;;;;;2.15;1.08;;;;;;;;;;5072644;28;20530;-83
2023/03/18 11:29:33;;;;;;;4.72;1.10;;;;;;;;;;5072333;28;20051;-82
2023/03/18 11:32:01;;;;;;;2.15;0.90;;;;;;;;;;5073320;28;20041;-83
2023/03/18 11:34:29;;;;;;;2.72;1.20;;;;;;;;;;5072407;28;20506;-83
2023/03/18 11:37:03;;;;;;;16.10;1.70;;;;;;;;;;5072251;28;20620;-83
2023/03/18 11:39:31;;;;;;;5.47;1.08;;;;;;;;;;5072212;28;20052;-84
2023/03/18 11:41:59;;;;;;;2.70;1.30;;;;;;;;;;5073469;28;20392;-83
2023/03/18 11:44:27;;;;;;;3.08;1.00;;;;;;;;;;5071843;28;20083;-83
2023/03/18 11:46:58;;;;;;;3.72;1.25;;;;;;;;;;5055884;28;20503;-83
2023/03/18 11:49:27;;;;;;;2.50;1.10;;;;;;;;;;5072162;28;20102;-83
2023/03/18 11:52:00;;;;;;;3.38;0.82;;;;;;;;;;5072037;28;20048;-83
2023/03/18 11:54:40;;;;;;;2.47;0.98;;;;;;;;;;5071892;28;20075;-83
2023/03/18 11:57:16;;;;;;;3.35;1.02;;;;;;;;;;5055580;28;20052;-83
2023/03/18 11:59:55;;;;;;;1.63;0.90;;;;;;;;;;5055361;28;20059;-83
2023/03/18 12:02:35;;;;;;;1.20;0.80;;;;;;;;;;5073063;28;20040;-83
2023/03/18 12:05:20;;;;;;;2.88;0.90;;;;;;;;;;5055266;28;20048;-83
2023/03/18 12:08:08;;;;;;;3.15;0.90;;;;;;;;;;5055452;28;20481;-83
2023/03/18 12:10:36;;;;;;;3.45;1.15;;;;;;;;;;5071688;28;20139;-83
2023/03/18 12:13:19;;;;;;;1.35;0.77;;;;;;;;;;5073055;28;20482;-83
2023/03/18 12:15:46;;;;;;;3.78;1.13;;;;;;;;;;5070677;28;20136;-83
2023/03/18 12:18:22;;;;;;;3.22;1.40;;;;;;;;;;5072964;28;20420;-83
2023/03/18 12:20:51;;;;;;;1.63;1.20;;;;;;;;;;5071707;28;20049;-83
2023/03/18 12:23:25;;;;;;;5.47;1.10;;;;;;;;;;5071822;28;20049;-83
2023/03/18 12:26:02;;;;;;;2.10;1.27;;;;;;;;;;5071505;28;20047;-83
2023/03/18 12:28:54;;;;;;;3.92;1.60;;;;;;;;;;5073440;28;20078;-83
2023/03/18 12:31:35;;;;;;;2.38;0.93;;;;;;;;;;5072038;28;20051;-84
2023/03/18 12:34:03;;;;;;;2.38;1.15;;;;;;;;;;5055030;28;20499;-83
2023/03/18 12:36:38;;;;;;;2.78;1.02;;;;;;;;;;5072298;28;20083;-83
2023/03/18 12:39:16;;;;;;;1.42;0.90;;;;;;;;;;5071663;28;20052;-83
2023/03/18 12:41:55;;;;;;;1.45;0.88;;;;;;;;;;5055164;28;20044;-83
2023/03/18 12:44:41;;;;;;;0.93;0.70;;;;;;;;;;5071225;28;20055;-83
2023/03/18 12:47:08;;;;;;;2.58;1.00;;;;;;;;;;5071378;28;20048;-83
2023/03/18 12:49:41;;;;;;;2.45;1.10;;;;;;;;;;5071244;28;20393;-83
2023/03/18 12:52:16;;;;;;;2.03;1.00;;;;;;;;;;5072409;28;20048;-83
2023/03/18 12:54:48;;;;;;;2.22;0.90;;;;;;;;;;5054425;28;20408;-83
2023/03/18 12:57:38;;;;;;;6.55;1.30;;;;;;;;;;5054712;28;20040;-83
2023/03/18 13:00:26;;;;;;;6.75;1.45;;;;;;;;;;5071302;28;20143;-82
2023/03/18 13:03:12;;;;;;;7.60;1.85;;;;;;;;;;5072380;28;20052;-83
2023/03/18 13:05:47;;;;;;;15.27;2.28;;;;;;;;;;5054831;28;20074;-84
2023/03/18 13:08:29;;;;;;;2.92;1.30;;;;;;;;;;5072739;28;20051;-84
2023/03/18 13:11:04;;;;;;;3.65;1.10;;;;;;;;;;5072431;28;20053;-83
2023/03/18 13:13:33;;;;;;;3.45;1.08;;;;;;;;;;5071193;28;20576;-83
2023/03/18 13:16:02;;;;;;;3.17;1.10;;;;;;;;;;5071338;28;20143;-83
2023/03/18 13:18:49;;;;;;;1.88;1.20;;;;;;;;;;5070873;28;20044;-82
2023/03/18 13:21:20;;;;;;;28.85;2.95;;;;;;;;;;5054572;28;20501;-83
2023/03/18 13:23:59;;;;;;;8.95;2.03;;;;;;;;;;5071082;28;20524;-85
2023/03/18 13:26:38;;;;;;;5.05;1.50;;;;;;;;;;5071684;28;20063;-83
2023/03/18 13:29:15;;;;;;;4.68;1.20;;;;;;;;;;5058588;28;20404;-83
2023/03/18 13:31:42;;;;;;;1.75;0.95;;;;;;;;;;5075857;28;20049;-83
2023/03/18 13:34:30;;;;;;;1.52;1.10;;;;;;;;;;5058134;28;20055;-83
2023/03/18 13:37:21;;;;;;;2.22;1.00;;;;;;;;;;5074131;28;20510;-82
2023/03/18 13:39:57;;;;;;;4.78;1.70;;;;;;;;;;5074345;28;20060;-83
2023/03/18 13:42:37;;;;;;;4.32;1.20;;;;;;;;;;5077670;28;20052;-82
2023/03/18 13:45:11;;;;;;;2.47;1.27;;;;;;;;;;5075817;28;20470;-83
2023/03/18 13:47:39;;;;;;;6.80;2.20;;;;;;;;;;5075601;28;20049;-83
2023/03/18 13:50:27;;;;;;;3.50;1.00;;;;;;;;;;5057841;28;20048;-83
2023/03/18 13:52:55;;;;;;;3.95;1.30;;;;;;;;;;5074247;28;20093;-83
2023/03/18 13:55:23;;;;;;;2.72;1.30;;;;;;;;;;5074080;28;20055;-82
2023/03/18 13:57:54;;;;;;;72.25;9.57;;;;;;;;;;5074344;28;20048;-83
2023/03/18 14:00:29;;;;;;;5.13;1.63;;;;;;;;;;5073912;28;20444;-83
2023/03/18 14:03:16;;;;;;;1.95;1.35;;;;;;;;;;5074246;28;20048;-83
2023/03/18 14:05:45;;;;;;;15.25;4.32;;;;;;;;;;5057552;28;20147;-83
2023/03/18 14:08:31;;;;;;;2.20;1.40;;;;;;;;;;5075201;28;20378;-83
2023/03/18 14:11:10;;;;;;;1.45;1.17;;;;;;;;;;5075495;28;20551;-83
2023/03/18 14:13:38;;;;;;;3.13;1.73;;;;;;;;;;5057507;28;20055;-84
2023/03/18 14:16:09;;;;;;;3.60;1.50;;;;;;;;;;5057599;28;20044;-83
2023/03/18 14:18:37;;;;;;;8.40;1.83;;;;;;;;;;5057378;28;20127;-83
2023/03/18 14:21:07;;;;;;;9.25;2.10;;;;;;;;;;5073925;28;20048;-83
2023/03/18 14:23:37;;;;;;;11.25;2.75;;;;;;;;;;5075139;28;20048;-83
2023/03/18 14:26:21;;;;;;;6.63;1.88;;;;;;;;;;5057338;28;20052;-82
2023/03/18 14:28:49;;;;;;;;;;;;;;;;;;5074050;28;20052;-83
2023/03/18 14:31:25;;;;;;;9.00;1.77;;;;;;;;;;5075403;28;19931;-83
2023/03/18 14:33:57;;;;;;;4.50;1.48;;;;;;;;;;5074853;28;20385;-82
2023/03/18 14:36:43;;;;;;;11.20;1.70;;;;;;;;;;5073285;28;20052;-84
2023/03/18 14:39:18;;;;;;;;;;;;;;;;;;5073038;28;20447;-84
2023/03/18 14:41:47;;;;;;;4.60;1.60;;;;;;;;;;5073624;28;19925;-83
2023/03/18 14:44:20;;;;;;;2.53;1.20;;;;;;;;;;5056968;28;20053;-83
2023/03/18 14:46:50;;;;;;;4.78;1.67;;;;;;;;;;5056995;28;20135;-83
2023/03/18 14:49:34;;;;;;;5.63;1.85;;;;;;;;;;5074557;28;20131;-83
2023/03/18 14:52:04;;;;;;;4.47;1.60;;;;;;;;;;5057068;28;20488;-83
2023/03/18 14:54:35;;;;;;;3.70;1.30;;;;;;;;;;5073250;28;20044;-83
2023/03/18 14:57:04;;;;;;;3.28;1.50;;;;;;;;;;5078997;28;20056;-84
2023/03/18 14:59:31;;;;;;;5.15;1.50;;;;;;;;;;5074625;28;20139;-83